Time;durP1;ratioP1;P1;durP2;ratioP2;P2;SDS_P1;SDS_P2;PMS_P1;PMS_P2;Temp;Humidity;BMP_temperature;BMP_pressure;BME280_temperature;BME280_humidity;BME280_pressure;Samples;Min_cycle;Max_cycle;Signal;HPM_P1;HPM_P2
2021/12/23 00:02:00;;;;;;;43.45;29.83;;;-2.40;99.90;;;;;;5073076;28;20494;-73
2021/12/23 00:04:26;;;;;;;45.78;32.85;;;-2.40;99.90;;;;;;5072976;28;20586;-74
2021/12/23 00:06:53;;;;;;;44.50;29.40;;;-2.40;99.90;;;;;;5072754;28;20608;-73
2021/12/23 00:09:22;;;;;;;51.10;36.28;;;-2.40;99.90;;;;;;5072723;28;20453;-73
2021/12/23 00:11:49;;;;;;;46.37;32.80;;;-2.40;99.90;;;;;;5072482;28;20204;-74
2021/12/23 00:14:17;;;;;;;47.13;32.90;;;-2.40;99.90;;;;;;5072608;28;20451;-73
2021/12/23 00:16:44;;;;;;;31.23;24.90;;;-2.40;99.90;;;;;;5072374;28;20203;-72
2021/12/23 00:19:36;;;;;;;32.65;23.58;;;-2.40;99.90;;;;;;5072631;28;20233;-72
2021/12/23 00:24:48;;;;;;;35.90;27.53;;;-2.50;99.90;;;;;;5072265;28;20218;-73
2021/12/23 00:27:15;;;;;;;48.65;33.00;;;-2.50;99.90;;;;;;5072071;28;20463;-73
2021/12/23 00:29:43;;;;;;;46.13;33.57;;;-2.50;99.90;;;;;;5072041;28;20200;-74
2021/12/23 00:32:10;;;;;;;41.80;31.33;;;-2.60;99.90;;;;;;5072100;28;20461;-74
2021/12/23 00:34:37;;;;;;;42.63;30.53;;;-2.60;99.90;;;;;;5072259;28;20447;-73
2021/12/23 00:37:07;;;;;;;41.73;28.33;;;-2.60;99.90;;;;;;5072266;28;20441;-73
2021/12/23 00:39:33;;;;;;;46.07;34.23;;;-2.60;99.90;;;;;;5071586;28;20488;-72
2021/12/23 00:42:06;;;;;;;50.17;33.87;;;-2.70;99.90;;;;;;5072109;28;20458;-73
2021/12/23 00:44:33;;;;;;;40.17;31.27;;;-2.70;99.90;;;;;;5071860;28;20484;-72
2021/12/23 00:47:01;;;;;;;44.95;32.25;;;-2.70;99.90;;;;;;5071176;28;20502;-73
2021/12/23 00:49:27;;;;;;;39.95;32.28;;;-2.80;99.90;;;;;;5071146;28;20224;-73
2021/12/23 00:51:56;;;;;;;44.15;31.33;;;-2.80;99.90;;;;;;5071770;28;20392;-73
2021/12/23 00:54:23;;;;;;;40.10;30.53;;;-2.80;99.90;;;;;;5071665;28;20209;-73
2021/12/23 00:56:51;;;;;;;38.00;25.67;;;-2.80;99.90;;;;;;5071630;28;20465;-72
2021/12/23 00:59:18;;;;;;;37.28;27.95;;;-2.80;99.90;;;;;;5071383;28;20729;-72
2021/12/23 01:01:46;;;;;;;42.60;31.05;;;-2.80;99.90;;;;;;5071516;28;20595;-73
2021/12/23 01:04:15;;;;;;;44.87;31.70;;;-2.70;99.90;;;;;;5071429;28;20208;-73
2021/12/23 01:06:42;;;;;;;39.25;29.27;;;-2.70;99.90;;;;;;5071537;28;20865;-74
2021/12/23 01:09:09;;;;;;;50.75;32.95;;;-2.70;99.90;;;;;;5071556;28;20203;-72
2021/12/23 01:11:36;;;;;;;31.50;24.77;;;-2.70;99.90;;;;;;5070310;28;20201;-72
2021/12/23 01:14:25;;;;;;;36.95;30.48;;;-2.60;99.90;;;;;;5071285;28;20444;-73
2021/12/23 01:17:11;;;;;;;50.83;35.47;;;-2.60;99.90;;;;;;5071085;28;20238;-73
2021/12/23 01:19:40;;;;;;;37.05;28.45;;;-2.60;99.90;;;;;;5070858;28;20443;-73
2021/12/23 01:22:07;;;;;;;49.17;33.53;;;-2.60;99.90;;;;;;5071373;28;20231;-73
2021/12/23 01:24:34;;;;;;;42.20;32.10;;;-2.60;99.90;;;;;;5071292;28;20616;-73
2021/12/23 01:27:01;;;;;;;45.17;31.50;;;-2.60;99.90;;;;;;5071292;28;20447;-73
2021/12/23 01:29:28;;;;;;;42.28;30.95;;;-2.60;99.90;;;;;;5071416;28;20457;-71
2021/12/23 01:31:55;;;;;;;49.67;35.30;;;-2.60;99.90;;;;;;5070877;28;20203;-71
2021/12/23 01:34:22;;;;;;;38.33;31.75;;;-2.60;99.90;;;;;;5071178;28;20199;-74
2021/12/23 01:36:50;;;;;;;34.95;26.60;;;-2.60;99.90;;;;;;5071028;28;20252;-74
2021/12/23 01:39:16;;;;;;;38.65;26.95;;;-2.60;99.90;;;;;;5071280;28;20598;-74
2021/12/23 01:41:43;;;;;;;25.75;23.25;;;-2.60;99.90;;;;;;5071197;28;20227;-73
2021/12/23 01:44:10;;;;;;;33.40;25.70;;;-2.50;99.90;;;;;;5070868;28;20208;-73
2021/12/23 01:46:37;;;;;;;42.80;28.00;;;-2.50;99.90;;;;;;5070777;28;20201;-73
2021/12/23 01:49:04;;;;;;;28.08;22.10;;;-2.40;99.90;;;;;;5061015;28;20222;-73
2021/12/23 01:51:31;;;;;;;24.77;20.23;;;-2.40;99.90;;;;;;5051038;28;20202;-72
2021/12/23 01:53:59;;;;;;;39.70;27.53;;;-2.30;99.90;;;;;;5050849;28;20445;-73
2021/12/23 01:56:26;;;;;;;43.33;30.67;;;-2.30;99.90;;;;;;5050848;28;20454;-72
2021/12/23 01:58:54;;;;;;;42.00;29.25;;;-2.20;99.90;;;;;;5050858;28;20452;-72
2021/12/23 02:01:20;;;;;;;28.70;23.23;;;-2.30;99.90;;;;;;5050807;28;20294;-73
2021/12/23 02:03:48;;;;;;;33.80;25.10;;;-2.30;99.90;;;;;;5051408;28;20449;-73
2021/12/23 02:06:15;;;;;;;29.33;24.00;;;-2.30;99.90;;;;;;5050549;28;20452;-73
2021/12/23 02:08:44;;;;;;;31.37;24.13;;;-2.30;99.90;;;;;;5050630;28;20943;-73
2021/12/23 02:11:12;;;;;;;36.87;26.80;;;-2.30;99.90;;;;;;5050759;28;20897;-74
2021/12/23 02:13:39;;;;;;;31.77;26.07;;;-2.30;99.90;;;;;;5050644;28;20483;-73
2021/12/23 02:16:07;;;;;;;33.30;27.13;;;-2.40;99.90;;;;;;5050113;28;20452;-73
2021/12/23 02:18:35;;;;;;;32.97;26.30;;;-2.40;99.90;;;;;;5050355;28;20454;-74
2021/12/23 02:21:04;;;;;;;32.60;24.83;;;-2.40;99.90;;;;;;5050445;28;20450;-74
2021/12/23 02:23:31;;;;;;;35.30;29.03;;;-2.40;99.90;;;;;;5054016;28;20228;-74
2021/12/23 02:25:58;;;;;;;33.93;28.90;;;-2.40;99.90;;;;;;5054153;28;20453;-74
2021/12/23 02:28:26;;;;;;;30.45;27.20;;;-2.30;99.90;;;;;;5054396;28;20446;-74
2021/12/23 02:30:53;;;;;;;37.40;28.47;;;-2.40;99.90;;;;;;5053957;28;20234;-74
2021/12/23 02:33:22;;;;;;;45.75;31.30;;;-2.40;99.90;;;;;;5054246;28;20953;-74
2021/12/23 02:35:49;;;;;;;40.58;30.67;;;-2.40;99.90;;;;;;5054161;28;20263;-74
2021/12/23 02:38:18;;;;;;;43.40;31.17;;;-2.40;99.90;;;;;;5054060;28;20251;-73
2021/12/23 02:40:45;;;;;;;48.23;33.20;;;-2.50;99.90;;;;;;5053823;28;20456;-74
2021/12/23 02:43:15;;;;;;;36.33;28.00;;;-2.50;99.90;;;;;;5053582;28;20469;-74
2021/12/23 02:45:43;;;;;;;44.13;32.80;;;-2.60;99.90;;;;;;5053967;28;20454;-73
2021/12/23 02:48:13;;;;;;;40.75;31.00;;;-2.60;99.90;;;;;;5053678;28;20867;-74
2021/12/23 02:50:40;;;;;;;39.25;29.20;;;-2.60;99.90;;;;;;5054794;28;20223;-73
2021/12/23 02:53:07;;;;;;;47.20;30.83;;;-2.60;99.90;;;;;;5065524;28;20265;-74
2021/12/23 02:55:36;;;;;;;41.85;30.25;;;-2.60;99.90;;;;;;5054173;28;20225;-73
2021/12/23 02:58:04;;;;;;;39.92;29.65;;;-2.60;99.90;;;;;;5053791;28;20216;-74
2021/12/23 03:00:31;;;;;;;37.38;29.92;;;-2.60;99.90;;;;;;5053786;28;20199;-74
2021/12/23 03:02:58;;;;;;;40.67;29.83;;;-2.50;99.90;;;;;;5053425;28;20207;-73
2021/12/23 03:05:25;;;;;;;40.20;28.97;;;-2.50;99.90;;;;;;5053876;28;20472;-73
2021/12/23 03:07:52;;;;;;;45.45;31.48;;;-2.50;99.90;;;;;;5053496;28;20445;-74
2021/12/23 03:10:21;;;;;;;34.35;29.17;;;-2.50;99.90;;;;;;5053580;28;20833;-72
2021/12/23 03:12:50;;;;;;;38.78;31.08;;;-2.40;99.90;;;;;;5053391;28;20691;-72
2021/12/23 03:15:17;;;;;;;43.77;32.50;;;-2.40;99.90;;;;;;5052942;28;20203;-72
2021/12/23 03:17:44;;;;;;;46.42;32.92;;;-2.30;99.90;;;;;;5053416;28;20864;-72
2021/12/23 03:20:12;;;;;;;41.15;30.77;;;-2.40;99.90;;;;;;5053447;28;20233;-72
2021/12/23 03:22:38;;;;;;;35.57;27.20;;;-2.40;99.90;;;;;;5053221;28;20232;-72
2021/12/23 03:25:07;;;;;;;41.53;31.97;;;-2.50;99.90;;;;;;5053304;28;20455;-72
2021/12/23 03:27:33;;;;;;;37.00;29.30;;;-2.50;99.90;;;;;;5053020;28;21008;-73
2021/12/23 03:30:02;;;;;;;40.80;30.30;;;-2.60;99.90;;;;;;5053245;28;20208;-74
2021/12/23 03:32:28;;;;;;;31.90;26.93;;;-2.60;99.90;;;;;;5052707;28;20491;-73
2021/12/23 03:34:55;;;;;;;43.43;28.47;;;-2.60;99.90;;;;;;5052521;28;20458;-73
2021/12/23 03:37:22;;;;;;;43.13;31.10;;;-2.60;99.90;;;;;;5053669;28;20932;-73
2021/12/23 03:39:51;;;;;;;33.47;23.92;;;-2.60;99.90;;;;;;5052835;28;20278;-73
2021/12/23 03:42:17;;;;;;;33.65;25.92;;;-2.60;99.90;;;;;;5052829;28;20293;-74
2021/12/23 03:44:44;;;;;;;34.88;27.30;;;-2.60;99.90;;;;;;5053135;28;20206;-73
2021/12/23 03:47:12;;;;;;;36.92;29.23;;;-2.60;99.90;;;;;;5052738;28;20267;-74
2021/12/23 03:49:39;;;;;;;29.03;19.93;;;-2.60;99.90;;;;;;5052823;28;20255;-73
2021/12/23 03:52:06;;;;;;;29.65;26.50;;;-2.60;99.90;;;;;;5052774;28;20489;-77
2021/12/23 03:54:32;;;;;;;32.33;24.02;;;-2.50;99.90;;;;;;5053270;28;20266;-73
2021/12/23 03:56:59;;;;;;;35.87;26.90;;;-2.50;99.90;;;;;;5052397;28;20290;-73
2021/12/23 03:59:26;;;;;;;27.67;22.10;;;-2.40;99.90;;;;;;5053155;28;20996;-73
2021/12/23 04:01:53;;;;;;;26.57;23.53;;;-2.40;99.90;;;;;;5061698;28;20439;-74
2021/12/23 04:04:21;;;;;;;24.77;21.50;;;-2.40;99.90;;;;;;5062308;28;20482;-73
2021/12/23 04:06:47;;;;;;;30.30;23.60;;;-2.30;99.90;;;;;;5060643;28;20500;-73
2021/12/23 04:09:14;;;;;;;29.13;24.90;;;-2.20;99.90;;;;;;5061505;28;20863;-74
2021/12/23 04:11:41;;;;;;;34.03;26.13;;;-2.10;99.90;;;;;;5062478;28;20531;-73
2021/12/23 04:14:08;;;;;;;34.25;26.45;;;-2.10;99.90;;;;;;5062702;28;20453;-74
2021/12/23 04:16:34;;;;;;;34.13;25.40;;;-2.00;99.90;;;;;;5061437;28;20197;-73
2021/12/23 04:19:06;;;;;;;40.37;29.20;;;-2.00;99.90;;;;;;5060549;28;20497;-73
2021/12/23 04:21:34;;;;;;;39.13;27.37;;;-1.90;99.90;;;;;;5061489;28;20483;-72
2021/12/23 04:24:00;;;;;;;27.77;24.10;;;-1.90;99.90;;;;;;5061964;28;20465;-72
2021/12/23 04:26:27;;;;;;;30.00;25.30;;;-1.90;99.90;;;;;;5060190;28;20486;-71
2021/12/23 04:28:54;;;;;;;28.47;23.17;;;-1.80;99.90;;;;;;5061200;28;20447;-71
2021/12/23 04:31:22;;;;;;;30.73;23.80;;;-1.80;99.90;;;;;;5052603;28;20485;-71
2021/12/23 04:33:51;;;;;;;38.47;26.30;;;-1.80;99.90;;;;;;5052492;28;20451;-70
2021/12/23 04:36:18;;;;;;;34.20;26.15;;;-1.80;99.90;;;;;;5052438;28;20984;-70
2021/12/23 04:38:47;;;;;;;29.23;25.20;;;-1.80;99.90;;;;;;5052988;28;20206;-72
2021/12/23 04:41:15;;;;;;;27.70;24.30;;;-1.80;99.90;;;;;;5073771;28;20438;-72
2021/12/23 04:43:42;;;;;;;32.50;22.80;;;-1.80;99.90;;;;;;5080158;28;20453;-71
2021/12/23 04:46:09;;;;;;;27.20;23.43;;;-1.80;99.90;;;;;;5078519;28;20464;-70
2021/12/23 04:48:36;;;;;;;29.23;24.80;;;-1.70;99.90;;;;;;5059393;28;20483;-72
2021/12/23 04:51:03;;;;;;;35.13;27.47;;;-1.70;99.90;;;;;;5059493;28;20876;-72
2021/12/23 04:53:30;;;;;;;31.87;26.87;;;-1.70;99.90;;;;;;5060502;28;20788;-72
2021/12/23 04:55:58;;;;;;;32.30;26.50;;;-1.70;99.90;;;;;;5061462;28;20440;-72
2021/12/23 04:58:25;;;;;;;36.20;24.30;;;-1.60;99.90;;;;;;5050208;28;20487;-72
2021/12/23 05:00:52;;;;;;;27.47;21.90;;;-1.60;99.90;;;;;;5050297;28;20448;-72
2021/12/23 05:03:21;;;;;;;29.80;21.40;;;-1.60;99.90;;;;;;5050840;28;20916;-73
2021/12/23 05:05:47;;;;;;;29.37;23.60;;;-1.50;99.90;;;;;;5050437;28;20447;-72
2021/12/23 05:08:15;;;;;;;38.57;27.97;;;-1.40;99.90;;;;;;5050821;28;20494;-71
2021/12/23 05:10:42;;;;;;;32.90;26.17;;;-1.40;99.90;;;;;;5051209;28;20463;-73
2021/12/23 05:13:11;;;;;;;29.00;23.20;;;-1.40;99.90;;;;;;5051721;28;20849;-72
2021/12/23 05:15:38;;;;;;;27.83;21.40;;;-1.50;99.90;;;;;;5056524;28;20494;-72
2021/12/23 05:18:05;;;;;;;26.93;22.27;;;-1.50;99.90;;;;;;5059626;28;20507;-72
2021/12/23 05:20:32;;;;;;;30.23;22.57;;;-1.60;99.90;;;;;;5051421;28;20728;-73
2021/12/23 05:22:59;;;;;;;33.60;25.13;;;-1.70;99.90;;;;;;5051147;28;20477;-74
2021/12/23 05:25:26;;;;;;;37.00;26.23;;;-1.80;99.90;;;;;;5050903;28;20457;-74
2021/12/23 05:27:54;;;;;;;31.80;25.03;;;-1.80;99.90;;;;;;5051329;28;20451;-73
2021/12/23 05:30:24;;;;;;;39.33;26.33;;;-1.80;99.90;;;;;;5051111;28;20453;-73
2021/12/23 05:32:51;;;;;;;35.80;25.50;;;-1.80;99.90;;;;;;5050933;28;21004;-71
2021/12/23 05:35:18;;;;;;;30.55;26.13;;;-1.80;99.90;;;;;;5050961;28;20457;-72
2021/12/23 05:37:45;;;;;;;33.03;26.97;;;-1.90;99.90;;;;;;5051046;28;20208;-72
2021/12/23 05:40:15;;;;;;;32.30;25.47;;;-1.90;99.90;;;;;;5051059;28;20455;-71
2021/12/23 05:42:42;;;;;;;28.30;23.20;;;-1.90;99.90;;;;;;5051073;28;20451;-71
2021/12/23 05:45:09;;;;;;;32.87;25.60;;;-2.00;99.90;;;;;;5051034;28;20450;-71
2021/12/23 05:47:38;;;;;;;35.97;24.00;;;-2.00;99.90;;;;;;5050510;28;20486;-73
2021/12/23 05:50:06;;;;;;;34.97;26.87;;;-2.00;99.90;;;;;;5050944;28;20452;-71
2021/12/23 05:52:33;;;;;;;34.23;27.27;;;-2.00;99.90;;;;;;5050637;28;20491;-71
2021/12/23 05:55:02;;;;;;;35.42;28.80;;;-2.00;99.90;;;;;;5050485;28;20517;-70
2021/12/23 05:57:28;;;;;;;34.30;25.30;;;-2.00;99.90;;;;;;5050391;28;20671;-71
2021/12/23 05:59:56;;;;;;;35.55;27.60;;;-2.10;99.90;;;;;;5050560;28;20880;-72
2021/12/23 06:02:22;;;;;;;34.23;23.83;;;-2.10;99.90;;;;;;5050813;28;20203;-72
2021/12/23 06:04:50;;;;;;;29.95;25.20;;;-2.20;99.90;;;;;;5050662;28;20504;-73
2021/12/23 06:07:17;;;;;;;35.60;24.40;;;-2.30;99.90;;;;;;5050267;28;20743;-73
2021/12/23 06:09:44;;;;;;;27.33;24.57;;;-2.40;99.90;;;;;;5050491;28;20453;-73
2021/12/23 06:12:11;;;;;;;38.85;28.33;;;-2.50;99.90;;;;;;5050625;28;20657;-72
2021/12/23 06:14:38;;;;;;;36.67;24.92;;;-2.50;99.90;;;;;;5050572;28;20251;-72
2021/12/23 06:17:04;;;;;;;28.97;24.33;;;-2.60;99.90;;;;;;5050826;28;20205;-72
2021/12/23 06:19:31;;;;;;;32.73;25.80;;;-2.60;99.90;;;;;;5050232;28;20950;-72
2021/12/23 06:21:59;;;;;;;29.83;24.80;;;-2.60;99.90;;;;;;5050524;28;20862;-71
2021/12/23 06:24:26;;;;;;;29.98;26.20;;;-2.60;99.90;;;;;;5050223;28;20224;-73
2021/12/23 06:26:52;;;;;;;45.00;29.48;;;-2.60;99.90;;;;;;5050843;28;20209;-72
2021/12/23 06:29:19;;;;;;;35.30;28.58;;;-2.50;99.90;;;;;;5050758;28;20207;-72
2021/12/23 06:31:46;;;;;;;32.22;24.70;;;-2.40;99.90;;;;;;5050358;28;20644;-74
2021/12/23 06:34:13;;;;;;;34.90;26.85;;;-2.40;99.90;;;;;;5047282;28;20218;-74
2021/12/23 06:36:40;;;;;;;34.75;25.67;;;-2.40;99.90;;;;;;5047305;28;20227;-75
2021/12/23 06:39:08;;;;;;;33.60;26.50;;;-2.40;99.90;;;;;;5049977;28;20659;-74
2021/12/23 06:41:35;;;;;;;27.38;21.75;;;-2.40;99.90;;;;;;5049423;28;20505;-74
2021/12/23 06:44:02;;;;;;;34.53;25.70;;;-2.40;99.90;;;;;;5049978;28;20216;-73
2021/12/23 06:46:29;;;;;;;30.73;25.27;;;-2.40;99.90;;;;;;5050492;28;20580;-73
2021/12/23 06:48:55;;;;;;;25.07;21.30;;;-2.40;99.90;;;;;;5050033;28;20239;-72
2021/12/23 06:51:22;;;;;;;30.98;22.35;;;-2.40;99.90;;;;;;5049617;28;20453;-73
2021/12/23 06:53:49;;;;;;;32.55;26.25;;;-2.30;99.90;;;;;;5049674;28;20198;-74
2021/12/23 06:56:18;;;;;;;40.80;29.63;;;-2.30;99.90;;;;;;5050051;28;20207;-73
2021/12/23 06:58:48;;;;;;;37.30;30.17;;;-2.20;99.90;;;;;;5049991;28;20508;-72
2021/12/23 07:01:17;;;;;;;31.43;25.63;;;-2.30;99.90;;;;;;5049914;28;20448;-73
2021/12/23 07:04:03;;;;;;;32.00;27.77;;;-2.20;99.90;;;;;;5050237;28;20450;-73
2021/12/23 07:06:31;;;;;;;41.30;27.73;;;-2.20;99.90;;;;;;5049985;28;20462;-73
2021/12/23 07:08:58;;;;;;;39.07;26.90;;;-2.20;99.90;;;;;;5051405;28;20452;-73
2021/12/23 07:11:27;;;;;;;35.97;26.00;;;-2.10;99.90;;;;;;5053429;28;20453;-73
2021/12/23 07:13:54;;;;;;;35.70;27.57;;;-2.00;99.90;;;;;;5053675;28;20512;-72
2021/12/23 07:16:20;;;;;;;34.30;24.75;;;-2.00;99.90;;;;;;5053890;28;20453;-73
2021/12/23 07:18:47;;;;;;;28.77;24.30;;;-1.90;99.90;;;;;;5053225;28;20206;-73
2021/12/23 07:21:14;;;;;;;31.70;24.70;;;-1.90;99.90;;;;;;5053347;28;20214;-74
2021/12/23 07:23:40;;;;;;;29.80;21.70;;;-1.90;99.90;;;;;;5053328;28;20711;-73
2021/12/23 07:26:07;;;;;;;50.10;28.17;;;-1.90;99.90;;;;;;5053375;28;20228;-72
2021/12/23 07:28:35;;;;;;;32.43;23.90;;;-2.00;99.90;;;;;;5052999;28;20533;-72
2021/12/23 07:31:02;;;;;;;35.77;27.33;;;-1.90;99.90;;;;;;5052046;28;20445;-73
2021/12/23 07:33:29;;;;;;;39.10;27.80;;;-2.00;99.90;;;;;;5052996;28;20490;-74
2021/12/23 07:35:55;;;;;;;30.87;25.60;;;-2.00;99.90;;;;;;5054960;28;20451;-74
2021/12/23 07:38:22;;;;;;;32.88;26.58;;;-2.10;99.90;;;;;;5062128;28;20464;-73
2021/12/23 07:40:49;;;;;;;33.90;26.13;;;-2.10;99.90;;;;;;5053802;28;20206;-73
2021/12/23 07:45:58;;;;;;;33.80;25.07;;;-2.00;99.90;;;;;;5052843;28;20205;-73
2021/12/23 07:48:24;;;;;;;27.80;24.20;;;-2.10;99.90;;;;;;5052814;28;20486;-74
2021/12/23 07:50:51;;;;;;;29.57;23.87;;;-2.00;99.90;;;;;;5051811;28;20456;-72
2021/12/23 07:53:18;;;;;;;34.65;28.60;;;-2.00;99.90;;;;;;5052546;28;21076;-72
2021/12/23 07:55:44;;;;;;;33.63;25.77;;;-2.00;99.90;;;;;;5053054;28;20204;-73
2021/12/23 07:58:11;;;;;;;25.67;22.43;;;-2.00;99.90;;;;;;5052746;28;20455;-73
2021/12/23 08:00:38;;;;;;;28.17;22.83;;;-2.00;99.90;;;;;;5052571;28;20458;-73
2021/12/23 08:03:06;;;;;;;33.00;25.50;;;-1.90;99.90;;;;;;5052472;28;20453;-72
2021/12/23 08:05:33;;;;;;;28.10;22.63;;;-1.90;99.90;;;;;;5052404;28;20452;-73
2021/12/23 08:08:00;;;;;;;33.57;26.50;;;-1.80;99.90;;;;;;5052492;28;20483;-72
2021/12/23 08:10:27;;;;;;;24.33;21.57;;;-1.70;99.90;;;;;;5052720;28;20446;-73
2021/12/23 08:12:54;;;;;;;23.60;19.57;;;-1.60;99.90;;;;;;5055935;28;20478;-73
2021/12/23 08:15:21;;;;;;;26.70;23.87;;;-1.60;99.90;;;;;;5072364;28;20459;-73
2021/12/23 08:17:47;;;;;;;26.33;21.20;;;-1.60;99.90;;;;;;5071675;28;20455;-72
2021/12/23 08:20:17;;;;;;;31.87;24.17;;;-1.50;99.90;;;;;;5072141;28;20450;-73
2021/12/23 08:22:44;;;;;;;32.67;26.17;;;-1.40;99.90;;;;;;5072168;28;20471;-72
2021/12/23 08:25:12;;;;;;;32.87;28.40;;;-1.20;99.90;;;;;;5071975;28;20454;-73
2021/12/23 08:27:39;;;;;;;28.53;25.03;;;-1.10;99.90;;;;;;5072132;28;20791;-73
2021/12/23 08:30:09;;;;;;;36.70;27.67;;;-1.00;99.90;;;;;;5072132;28;20450;-73
2021/12/23 08:32:35;;;;;;;27.30;24.40;;;-0.80;99.90;;;;;;5072064;28;20489;-71
2021/12/23 08:35:02;;;;;;;34.33;27.83;;;-0.60;99.90;;;;;;5072299;28;20454;-74
2021/12/23 08:37:30;;;;;;;33.73;25.70;;;-0.60;99.90;;;;;;5072271;28;20454;-72
2021/12/23 08:39:57;;;;;;;24.67;21.50;;;-0.60;99.90;;;;;;5071945;28;20854;-73
2021/12/23 08:42:24;;;;;;;32.73;25.97;;;-0.70;99.90;;;;;;5071995;28;20648;-72
2021/12/23 08:44:51;;;;;;;27.73;23.90;;;-0.70;99.90;;;;;;5072070;28;20878;-72
2021/12/23 08:47:18;;;;;;;31.90;25.00;;;-0.70;99.90;;;;;;5071618;28;20500;-73
2021/12/23 08:49:45;;;;;;;36.90;28.00;;;-0.70;99.90;;;;;;5071923;28;20461;-73
2021/12/23 08:52:13;;;;;;;32.90;27.13;;;-0.60;99.90;;;;;;5071592;28;20559;-72
2021/12/23 08:54:42;;;;;;;39.00;29.13;;;-0.50;99.90;;;;;;5071580;28;20941;-73
2021/12/23 08:57:10;;;;;;;34.33;27.57;;;-0.40;99.90;;;;;;5071729;28;20546;-72
2021/12/23 08:59:36;;;;;;;37.17;28.10;;;-0.30;99.90;;;;;;5071409;28;20816;-72
2021/12/23 09:02:04;;;;;;;34.43;26.97;;;-0.30;99.90;;;;;;5071273;28;20446;-73
2021/12/23 09:04:31;;;;;;;24.67;21.93;;;-0.30;99.90;;;;;;5071688;28;20569;-72
2021/12/23 09:06:57;;;;;;;38.57;27.47;;;-0.20;99.90;;;;;;5071728;28;20455;-72
2021/12/23 09:09:24;;;;;;;22.17;20.10;;;-0.10;99.90;;;;;;5071223;28;20439;-73
2021/12/23 09:11:53;;;;;;;34.63;27.03;;;-0.10;99.90;;;;;;5068986;28;20463;-73
2021/12/23 09:14:19;;;;;;;31.27;27.43;;;-0.10;99.90;;;;;;5071530;28;20817;-73
2021/12/23 09:16:46;;;;;;;30.60;25.87;;;0.00;99.90;;;;;;5071995;28;20857;-73
2021/12/23 09:19:14;;;;;;;34.70;27.90;;;0.10;99.90;;;;;;5090451;28;20447;-72
2021/12/23 09:21:41;;;;;;;29.67;25.33;;;0.10;99.90;;;;;;5091177;28;20528;-72
2021/12/23 09:24:08;;;;;;;27.10;21.63;;;0.10;99.90;;;;;;5088762;28;20479;-72
2021/12/23 09:26:45;;;;;;;30.50;24.57;;;0.00;99.90;;;;;;5062425;28;20525;-72
2021/12/23 09:29:18;;;;;;;30.23;24.93;;;0.00;99.90;;;;;;5060569;28;20455;-73
2021/12/23 09:34:29;;;;;;;27.13;24.17;;;0.20;99.90;;;;;;5068836;28;20474;-74
2021/12/23 09:36:56;;;;;;;32.00;23.43;;;0.20;99.90;;;;;;5060555;28;20450;-74
2021/12/23 09:39:23;;;;;;;33.50;23.67;;;0.40;99.90;;;;;;5060118;28;20435;-74
2021/12/23 09:41:50;;;;;;;29.80;24.07;;;0.40;99.90;;;;;;5058564;28;20459;-75
2021/12/23 09:44:18;;;;;;;26.50;23.83;;;0.50;99.90;;;;;;5064995;28;20854;-73
2021/12/23 09:46:45;;;;;;;27.70;24.63;;;0.50;99.90;;;;;;5069205;28;20492;-73
2021/12/23 09:49:12;;;;;;;32.73;25.30;;;0.40;99.90;;;;;;5070749;28;20483;-74
2021/12/23 09:51:40;;;;;;;27.50;22.87;;;0.50;99.90;;;;;;5070623;28;20435;-74
2021/12/23 09:54:09;;;;;;;30.17;23.20;;;0.50;99.90;;;;;;5070765;28;20495;-73
2021/12/23 09:56:36;;;;;;;31.30;24.67;;;0.40;99.90;;;;;;5070879;28;20458;-73
2021/12/23 09:59:06;;;;;;;28.20;24.67;;;0.40;99.90;;;;;;5070902;28;20786;-73
2021/12/23 10:01:35;;;;;;;26.73;23.53;;;0.40;99.90;;;;;;5070607;28;20456;-72
2021/12/23 10:04:02;;;;;;;32.83;23.57;;;0.50;99.90;;;;;;5070676;28;20452;-73
2021/12/23 10:06:28;;;;;;;31.73;24.93;;;0.60;99.90;;;;;;5070749;28;20812;-72
2021/12/23 10:08:56;;;;;;;28.57;24.10;;;0.80;99.90;;;;;;5070843;28;20449;-73
2021/12/23 10:11:30;;;;;;;29.53;22.47;;;0.90;99.90;;;;;;5070658;28;20451;-72
2021/12/23 10:30:39;;;;;;;27.13;24.13;;;1.20;99.90;;;;;;5070634;28;20948;-74
2021/12/23 10:38:41;;;;;;;35.73;23.80;;;1.50;99.90;;;;;;5070589;28;20429;-73
2021/12/23 10:41:11;;;;;;;28.27;25.00;;;1.40;99.90;;;;;;5070447;28;20458;-73
2021/12/23 10:43:40;;;;;;;34.90;27.27;;;1.30;99.90;;;;;;5073340;28;20443;-73
2021/12/23 10:46:10;;;;;;;31.40;27.37;;;1.40;99.90;;;;;;5074312;28;20439;-73
2021/12/23 10:48:48;;;;;;;29.77;24.93;;;1.50;99.90;;;;;;5074200;28;20980;-73
2021/12/23 10:51:19;;;;;;;31.97;27.07;;;1.50;99.90;;;;;;5074426;28;20455;-73
2021/12/23 10:54:14;;;;;;;28.53;24.10;;;1.50;99.90;;;;;;5074064;28;20483;-73
2021/12/23 10:59:27;;;;;;;30.90;24.30;;;1.70;99.90;;;;;;5074034;28;20488;-75
2021/12/23 11:02:12;;;;;;;33.80;25.27;;;1.80;99.90;;;;;;5073896;28;20462;-73
2021/12/23 11:05:09;;;;;;;32.23;23.77;;;1.80;99.90;;;;;;5073896;28;20454;-73
2021/12/23 11:07:45;;;;;;;38.37;30.63;;;1.80;99.90;;;;;;5073730;28;20563;-74
2021/12/23 11:10:19;;;;;;;33.17;27.00;;;2.10;99.90;;;;;;5073729;28;20805;-74
2021/12/23 11:38:35;;;;;;;32.00;27.33;;;3.40;99.90;;;;;;5073375;28;20478;-74
2021/12/23 11:41:14;;;;;;;28.33;25.37;;;3.40;99.90;;;;;;5073170;28;20512;-74
2021/12/23 11:43:48;;;;;;;36.17;29.23;;;3.40;99.90;;;;;;5073098;28;20452;-75
2021/12/23 11:46:17;;;;;;;31.83;28.37;;;3.40;99.90;;;;;;5073154;28;20502;-73
2021/12/23 11:48:46;;;;;;;33.90;28.03;;;3.50;99.90;;;;;;5072803;28;20572;-74
2021/12/23 11:51:20;;;;;;;32.93;29.33;;;3.70;99.90;;;;;;5073111;28;20537;-74
2021/12/23 11:53:49;;;;;;;31.07;27.20;;;4.00;99.90;;;;;;5072065;28;20492;-74
2021/12/23 11:56:18;;;;;;;31.60;27.67;;;4.20;99.90;;;;;;5072927;28;20991;-72
2021/12/23 11:58:47;;;;;;;31.17;27.77;;;4.30;99.90;;;;;;5072873;28;20450;-74
2021/12/23 12:01:18;;;;;;;36.70;27.00;;;4.20;99.90;;;;;;5072667;28;20512;-74
2021/12/23 12:03:59;;;;;;;40.33;30.43;;;4.00;99.90;;;;;;5072738;28;20470;-74
2021/12/23 12:06:29;;;;;;;30.13;26.87;;;3.90;99.90;;;;;;5073207;28;20923;-75
2021/12/23 12:09:11;;;;;;;35.43;30.20;;;3.70;99.90;;;;;;5072546;28;20490;-75
2021/12/23 12:11:38;;;;;;;27.60;24.80;;;3.60;99.90;;;;;;5072774;28;20463;-74
2021/12/23 12:14:05;;;;;;;31.33;27.40;;;3.40;99.90;;;;;;5072580;28;20491;-75
2021/12/23 12:16:35;;;;;;;33.00;28.70;;;3.30;99.90;;;;;;5072637;28;20504;-74
2021/12/23 12:19:03;;;;;;;33.17;27.47;;;3.40;99.90;;;;;;5072647;28;20454;-75
2021/12/23 12:21:34;;;;;;;30.90;27.20;;;3.40;99.90;;;;;;5072441;28;20457;-75
2021/12/23 12:24:14;;;;;;;30.90;26.63;;;3.40;99.90;;;;;;5072376;28;20865;-75
2021/12/23 12:27:00;;;;;;;35.50;26.40;;;3.40;99.90;;;;;;5072396;28;20493;-75
2021/12/23 12:29:34;;;;;;;38.30;28.37;;;3.40;99.90;;;;;;5072259;28;20488;-74
2021/12/23 12:32:02;;;;;;;34.47;28.83;;;3.40;99.90;;;;;;5072355;28;20455;-75
2021/12/23 12:34:35;;;;;;;32.23;28.70;;;3.50;99.90;;;;;;5072238;28;20486;-75
2021/12/23 12:37:04;;;;;;;37.07;28.67;;;3.50;99.90;;;;;;5072168;28;20478;-75
2021/12/23 12:39:40;;;;;;;33.27;29.40;;;3.60;99.90;;;;;;5072050;28;20462;-75
2021/12/23 12:42:11;;;;;;;38.60;27.97;;;3.70;99.90;;;;;;5072165;28;20905;-75
2021/12/23 12:44:53;;;;;;;31.00;26.80;;;3.60;99.90;;;;;;5072287;28;20446;-75
2021/12/23 12:47:25;;;;;;;30.60;26.90;;;3.70;99.90;;;;;;5071909;28;20479;-75
2021/12/23 12:49:54;;;;;;;34.73;29.53;;;3.70;99.90;;;;;;5071947;28;20461;-75
2021/12/23 12:52:32;;;;;;;32.77;28.40;;;3.60;99.90;;;;;;5072086;28;20458;-74
2021/12/23 12:55:03;;;;;;;35.53;28.33;;;3.60;99.90;;;;;;5071781;28;20513;-74
2021/12/23 12:57:34;;;;;;;33.27;28.97;;;3.60;99.90;;;;;;5071634;28;20530;-74
2021/12/23 13:00:17;;;;;;;36.53;28.30;;;3.70;99.90;;;;;;5072115;28;20452;-73
2021/12/23 13:02:50;;;;;;;32.40;27.30;;;3.60;99.90;;;;;;5071624;28;20504;-73
2021/12/23 13:05:17;;;;;;;30.90;27.23;;;3.60;99.90;;;;;;5071256;28;20461;-73
2021/12/23 13:07:49;;;;;;;30.20;27.20;;;3.60;99.90;;;;;;5071211;28;20492;-74
2021/12/23 13:10:20;;;;;;;34.10;28.13;;;3.60;99.90;;;;;;5071417;28;20453;-74
2021/12/23 13:12:50;;;;;;;29.60;26.40;;;3.70;99.90;;;;;;5071623;28;20451;-74
2021/12/23 13:15:20;;;;;;;35.90;31.70;;;3.70;99.90;;;;;;5071621;28;20912;-76
2021/12/23 13:17:55;;;;;;;31.87;27.97;;;3.80;99.90;;;;;;5071437;28;20447;-76
2021/12/23 13:20:44;;;;;;;31.20;26.33;;;3.90;99.90;;;;;;5071585;28;20447;-75
2021/12/23 13:23:20;;;;;;;31.60;28.07;;;4.00;99.90;;;;;;5071384;28;20467;-76
2021/12/23 13:25:54;;;;;;;35.07;26.97;;;4.00;99.90;;;;;;5071415;28;20497;-75
2021/12/23 13:28:31;;;;;;;33.20;29.63;;;4.00;99.90;;;;;;5071310;28;20503;-73
2021/12/23 13:30:58;;;;;;;29.47;26.30;;;4.00;99.90;;;;;;5071300;28;20455;-74
2021/12/23 13:33:25;;;;;;;39.80;27.67;;;4.10;99.90;;;;;;5071119;28;20906;-74
2021/12/23 13:35:53;;;;;;;35.13;27.83;;;4.20;99.90;;;;;;5071199;28;20485;-74
2021/12/23 13:38:39;;;;;;;35.10;27.93;;;4.20;99.90;;;;;;5071149;28;20447;-74